createdAt,value
2023-01-31T00:01:44.140Z,101152.34
2023-01-31T00:04:12.586Z,101165.22
2023-01-31T00:06:43.603Z,101162.56
2023-01-31T00:09:12.603Z,101152.19
2023-01-31T00:11:40.272Z,101156.88
2023-01-31T00:14:10.539Z,101157.78
2023-01-31T00:16:38.393Z,101162.84
2023-01-31T00:19:05.875Z,101165.66
2023-01-31T00:21:33.452Z,101159.66
2023-01-31T00:24:01.774Z,101166.66
2023-01-31T00:26:31.489Z,101165.66
2023-01-31T00:29:01.217Z,101175.00
2023-01-31T00:31:30.805Z,101172.31
2023-01-31T00:33:59.131Z,101173.47
2023-01-31T00:36:31.170Z,101170.94
2023-01-31T00:39:00.853Z,101187.31
2023-01-31T00:41:30.473Z,101174.19
2023-01-31T00:43:58.003Z,101199.34
2023-01-31T00:46:25.865Z,101198.97
2023-01-31T00:48:54.341Z,101204.22
2023-01-31T00:51:24.502Z,101196.47
2023-01-31T00:53:54.993Z,101194.94
2023-01-31T00:56:24.388Z,101194.53
2023-01-31T00:58:52.541Z,101202.72
2023-01-31T01:01:26.321Z,101199.56
2023-01-31T01:03:55.775Z,101199.06
2023-01-31T01:06:24.016Z,101220.09
2023-01-31T01:08:52.314Z,101225.22
2023-01-31T01:11:26.148Z,101231.38
2023-01-31T01:13:54.491Z,101209.25
2023-01-31T01:16:28.261Z,101221.28
2023-01-31T01:18:55.740Z,101229.22
2023-01-31T01:21:27.167Z,101233.34
2023-01-31T01:23:57.497Z,101228.56
2023-01-31T01:26:28.013Z,101230.41
2023-01-31T01:28:57.422Z,101227.59
2023-01-31T01:31:32.569Z,101232.16
2023-01-31T01:34:11.969Z,101244.63
2023-01-31T01:36:40.008Z,101241.25
2023-01-31T01:39:09.345Z,101228.00
2023-01-31T01:41:38.469Z,101237.66
2023-01-31T01:44:45.722Z,101232.16
2023-01-31T01:47:40.365Z,101243.66
2023-01-31T01:50:11.417Z,101244.31
2023-01-31T01:52:47.858Z,101234.66
2023-01-31T01:55:45.834Z,101241.09
2023-01-31T01:58:26.921Z,101231.03
2023-01-31T02:00:54.925Z,101226.34
2023-01-31T02:03:22.982Z,101237.69
2023-01-31T02:05:55.039Z,101239.03
2023-01-31T02:08:25.496Z,101247.97
2023-01-31T02:11:03.983Z,101230.47
2023-01-31T02:13:31.674Z,101252.69
2023-01-31T02:15:59.169Z,101260.50
2023-01-31T02:18:27.945Z,101270.88
2023-01-31T02:21:14.232Z,101249.63
2023-01-31T02:24:15.664Z,101260.03
2023-01-31T02:27:01.627Z,101259.75
2023-01-31T02:30:04.716Z,101260.91
2023-01-31T02:32:41.136Z,101252.09
2023-01-31T02:35:33.012Z,101242.41
2023-01-31T02:38:20.982Z,101248.63
2023-01-31T02:40:56.629Z,101237.84
2023-01-31T02:44:04.286Z,101237.19
2023-01-31T02:46:50.727Z,101240.53
2023-01-31T02:49:37.185Z,101245.25
2023-01-31T02:52:33.097Z,101250.50
2023-01-31T02:55:33.389Z,101250.00
2023-01-31T02:58:03.817Z,101253.84
2023-01-31T03:00:34.260Z,101255.75
2023-01-31T03:03:06.143Z,101258.22
2023-01-31T03:05:34.217Z,101251.47
2023-01-31T03:08:05.387Z,101267.41
2023-01-31T03:10:55.785Z,101266.31
2023-01-31T03:14:07.535Z,101269.53
2023-01-31T03:17:10.208Z,101273.94
2023-01-31T03:19:52.601Z,101281.91
2023-01-31T03:22:27.441Z,101297.94
2023-01-31T03:24:56.839Z,101284.00
2023-01-31T03:27:24.970Z,101287.50
2023-01-31T03:30:02.106Z,101276.94
2023-01-31T03:32:41.795Z,101287.34
2023-01-31T03:35:09.965Z,101288.28
2023-01-31T03:37:53.886Z,101297.06
2023-01-31T03:40:27.660Z,101283.81
2023-01-31T03:43:32.509Z,101292.72
2023-01-31T03:46:27.893Z,101278.59
2023-01-31T03:48:58.123Z,101284.91
2023-01-31T03:51:30.395Z,101283.97
2023-01-31T03:54:07.064Z,101286.47
2023-01-31T03:56:44.461Z,101288.09
2023-01-31T03:59:17.773Z,101292.69
2023-01-31T04:01:48.891Z,101297.25
2023-01-31T04:04:32.881Z,101283.13
2023-01-31T04:07:01.739Z,101292.75
2023-01-31T04:09:29.590Z,101298.13
2023-01-31T04:12:00.810Z,101284.66
2023-01-31T04:14:28.657Z,101285.69
2023-01-31T04:16:56.010Z,101288.16
2023-01-31T04:19:23.483Z,101279.72
2023-01-31T04:21:50.863Z,101281.41
2023-01-31T04:24:18.272Z,101282.25
2023-01-31T04:26:45.777Z,101282.56
2023-01-31T04:29:13.334Z,101290.63
2023-01-31T04:31:41.443Z,101282.59
2023-01-31T04:34:09.428Z,101287.94
2023-01-31T04:36:36.744Z,101288.31
2023-01-31T04:39:04.466Z,101296.06
2023-01-31T04:41:32.119Z,101309.88
2023-01-31T04:43:59.443Z,101307.38
2023-01-31T04:46:45.429Z,101302.19
2023-01-31T04:49:13.802Z,101314.31
2023-01-31T04:51:41.386Z,101323.38
2023-01-31T04:54:09.251Z,101314.66
2023-01-31T04:56:36.695Z,101319.66
2023-01-31T04:59:04.186Z,101306.56
2023-01-31T05:01:31.889Z,101312.88
2023-01-31T05:03:59.280Z,101308.94
2023-01-31T05:06:26.709Z,101307.41
2023-01-31T05:08:54.614Z,101295.63
2023-01-31T05:11:22.071Z,101297.47
2023-01-31T05:13:49.689Z,101302.69
2023-01-31T05:16:17.073Z,101317.47
2023-01-31T05:18:44.448Z,101315.06
2023-01-31T05:21:11.995Z,101314.94
2023-01-31T05:23:39.599Z,101316.47
2023-01-31T05:26:07.094Z,101318.56
2023-01-31T05:28:34.503Z,101325.50
2023-01-31T05:31:04.802Z,101306.78
2023-01-31T05:33:33.486Z,101296.34
2023-01-31T05:36:01.267Z,101296.50
2023-01-31T05:38:28.718Z,101290.38
2023-01-31T05:40:56.108Z,101306.34
2023-01-31T05:43:23.777Z,101308.03
2023-01-31T05:45:51.307Z,101320.19
2023-01-31T05:48:18.702Z,101321.00
2023-01-31T05:50:46.076Z,101326.97
2023-01-31T05:53:13.462Z,101326.66
2023-01-31T05:55:40.896Z,101316.34
2023-01-31T05:58:08.249Z,101343.50
2023-01-31T06:00:35.748Z,101329.56
2023-01-31T06:03:03.249Z,101330.56
2023-01-31T06:05:31.147Z,101338.44
2023-01-31T06:07:59.037Z,101327.75
2023-01-31T06:10:26.715Z,101345.41
2023-01-31T06:12:54.062Z,101349.56
2023-01-31T06:15:21.719Z,101362.78
2023-01-31T06:17:49.315Z,101367.00
2023-01-31T06:20:17.278Z,101364.44
2023-01-31T06:22:44.781Z,101366.19
2023-01-31T06:25:12.153Z,101368.88
2023-01-31T06:27:39.588Z,101367.09
2023-01-31T06:30:07.696Z,101384.53
2023-01-31T06:32:35.068Z,101392.44
2023-01-31T06:35:03.789Z,101398.69
2023-01-31T06:37:31.781Z,101396.13
2023-01-31T06:39:59.884Z,101399.25
2023-01-31T06:42:27.291Z,101398.22
2023-01-31T06:44:54.987Z,101410.44
2023-01-31T06:47:22.391Z,101389.69
2023-01-31T06:49:49.762Z,101403.56
2023-01-31T06:52:17.160Z,101411.44
2023-01-31T06:54:44.645Z,101411.13
2023-01-31T06:57:12.115Z,101411.00
2023-01-31T06:59:39.464Z,101418.22
2023-01-31T07:02:06.854Z,101428.75
2023-01-31T07:04:34.237Z,101429.63
2023-01-31T07:07:01.828Z,101427.97
2023-01-31T07:09:29.279Z,101426.22
2023-01-31T07:11:56.895Z,101432.50
2023-01-31T07:14:24.294Z,101427.47
2023-01-31T07:16:51.785Z,101445.81
2023-01-31T07:19:19.319Z,101432.69
2023-01-31T07:21:49.116Z,101433.56
2023-01-31T07:24:16.873Z,101416.97
2023-01-31T07:26:44.737Z,101436.38
2023-01-31T07:29:12.265Z,101416.44
2023-01-31T07:31:39.813Z,101429.84
2023-01-31T07:34:07.299Z,101440.34
2023-01-31T07:36:34.726Z,101436.03
2023-01-31T07:39:02.121Z,101437.09
2023-01-31T07:41:30.087Z,101430.97
2023-01-31T07:43:58.474Z,101426.75
2023-01-31T07:46:25.925Z,101434.66
2023-01-31T07:48:53.310Z,101436.53
2023-01-31T07:51:20.747Z,101434.94
2023-01-31T07:53:48.093Z,101447.41
2023-01-31T07:56:17.254Z,101427.34
2023-01-31T07:58:46.069Z,101436.25
2023-01-31T08:01:40.721Z,101425.69
2023-01-31T08:04:26.458Z,101429.38
2023-01-31T08:06:55.812Z,101431.16
2023-01-31T08:09:25.129Z,101442.72
2023-01-31T08:11:53.370Z,101434.22
2023-01-31T08:14:25.434Z,101440.59
2023-01-31T08:16:53.156Z,101450.25
2023-01-31T08:19:20.582Z,101455.75
2023-01-31T08:21:48.056Z,101461.97
2023-01-31T08:24:15.424Z,101454.09
2023-01-31T08:26:43.715Z,101438.38
2023-01-31T08:29:11.749Z,101451.56
2023-01-31T08:31:40.911Z,101454.38
2023-01-31T08:34:08.548Z,101462.56
2023-01-31T08:36:36.736Z,101466.91
2023-01-31T08:39:05.033Z,101478.50
2023-01-31T08:41:34.515Z,101471.69
2023-01-31T08:44:04.940Z,101467.25
2023-01-31T08:46:36.432Z,101464.75
2023-01-31T08:49:06.124Z,101450.91
2023-01-31T08:51:33.540Z,101461.50
2023-01-31T08:54:00.925Z,101464.25
2023-01-31T08:56:28.890Z,101458.00
2023-01-31T08:58:57.448Z,101451.50
2023-01-31T09:01:24.998Z,101462.97
2023-01-31T09:03:56.998Z,101460.22
2023-01-31T09:06:27.483Z,101465.91
2023-01-31T09:08:56.655Z,101463.38
2023-01-31T09:11:26.656Z,101459.94
2023-01-31T09:13:54.015Z,101470.53
2023-01-31T09:16:21.360Z,101458.19
2023-01-31T09:18:48.771Z,101465.19
2023-01-31T09:21:19.166Z,101450.16
2023-01-31T09:23:48.420Z,101459.88
2023-01-31T09:26:16.584Z,101465.16
2023-01-31T09:28:44.492Z,101453.69
2023-01-31T09:31:18.200Z,101475.78
2023-01-31T09:33:45.662Z,101463.38
2023-01-31T09:36:15.889Z,101468.66
2023-01-31T09:38:43.440Z,101454.56
2023-01-31T09:41:17.471Z,101467.78
2023-01-31T09:43:50.781Z,101465.09
2023-01-31T09:46:22.963Z,101469.53
2023-01-31T09:48:54.448Z,101459.00
2023-01-31T09:51:23.007Z,101460.72
2023-01-31T09:53:50.528Z,101470.47
2023-01-31T09:56:30.856Z,101462.50
2023-01-31T09:59:26.025Z,101468.69
2023-01-31T10:02:18.127Z,101464.31
2023-01-31T10:05:08.784Z,101459.00
2023-01-31T10:07:52.294Z,101472.25
2023-01-31T10:10:47.351Z,101468.75
2023-01-31T10:13:30.249Z,101469.63
2023-01-31T10:16:10.156Z,101471.38
2023-01-31T10:18:44.830Z,101473.13
2023-01-31T10:21:45.076Z,101474.94
2023-01-31T10:24:23.951Z,101474.06
2023-01-31T10:26:56.437Z,101471.41
2023-01-31T10:29:31.717Z,101482.91
2023-01-31T10:32:05.040Z,101475.84
2023-01-31T10:34:34.857Z,101478.50
2023-01-31T10:37:28.282Z,101462.59
2023-01-31T10:40:01.308Z,101470.53
2023-01-31T10:42:36.547Z,101459.00
2023-01-31T10:45:18.840Z,101458.13
2023-01-31T10:47:54.352Z,101451.03
2023-01-31T10:50:32.304Z,101436.00
2023-01-31T10:53:24.491Z,101444.78
2023-01-31T10:56:11.242Z,101447.41
2023-01-31T10:58:39.069Z,101435.03
2023-01-31T11:01:11.811Z,101433.25
2023-01-31T11:03:39.399Z,101437.66
2023-01-31T11:06:06.900Z,101436.72
2023-01-31T11:08:42.117Z,101426.03
2023-01-31T11:11:12.511Z,101432.16
2023-01-31T11:13:40.558Z,101429.47
2023-01-31T11:16:12.090Z,101432.09
2023-01-31T11:18:49.985Z,101426.66
2023-01-31T11:21:24.145Z,101414.19
2023-01-31T11:23:53.143Z,101433.53
2023-01-31T11:26:31.527Z,101419.28
2023-01-31T11:28:59.691Z,101410.34
2023-01-31T11:31:32.149Z,101404.94
2023-01-31T11:34:03.935Z,101409.44
2023-01-31T11:36:41.603Z,101412.19
2023-01-31T11:39:38.254Z,101394.28
2023-01-31T11:42:14.573Z,101401.53
2023-01-31T11:45:03.090Z,101411.34
2023-01-31T11:47:53.402Z,101397.09
2023-01-31T11:50:28.295Z,101397.06
2023-01-31T11:53:01.238Z,101389.94
2023-01-31T11:55:37.652Z,101391.75
2023-01-31T11:58:22.914Z,101388.88
2023-01-31T12:00:57.140Z,101388.41
2023-01-31T12:03:25.760Z,101393.59
2023-01-31T12:06:07.563Z,101386.38
2023-01-31T12:08:42.336Z,101397.03
2023-01-31T12:11:29.247Z,101394.41
2023-01-31T12:14:13.369Z,101390.13
2023-01-31T12:16:42.880Z,101401.59
2023-01-31T12:19:25.674Z,101393.66
2023-01-31T12:22:10.984Z,101377.63
2023-01-31T12:25:03.218Z,101378.50
2023-01-31T12:27:56.399Z,101380.22
2023-01-31T12:30:41.994Z,101376.69
2023-01-31T12:33:18.134Z,101364.16
2023-01-31T12:36:13.479Z,101366.78
2023-01-31T12:38:58.772Z,101362.47
2023-01-31T12:41:35.860Z,101365.06
2023-01-31T12:44:42.139Z,101349.09
2023-01-31T12:47:29.298Z,101346.25
2023-01-31T12:50:11.955Z,101345.34
2023-01-31T12:52:55.713Z,101344.91
2023-01-31T12:55:32.899Z,101333.47
2023-01-31T12:58:15.449Z,101340.59
2023-01-31T13:01:06.767Z,101326.53
2023-01-31T13:03:49.608Z,101330.94
2023-01-31T13:06:22.312Z,101329.84
2023-01-31T13:09:08.245Z,101322.59
2023-01-31T13:11:48.254Z,101320.63
2023-01-31T13:14:20.735Z,101315.16
2023-01-31T13:16:54.201Z,101319.94
2023-01-31T13:19:32.169Z,101310.16
2023-01-31T13:22:04.725Z,101307.50
2023-01-31T13:24:42.365Z,101310.94
2023-01-31T13:27:29.139Z,101303.88
2023-01-31T13:30:02.799Z,101300.31
2023-01-31T13:32:42.308Z,101294.84
2023-01-31T13:35:12.628Z,101292.19
2023-01-31T13:37:44.110Z,101287.88
2023-01-31T13:40:14.111Z,101294.69
2023-01-31T13:42:41.449Z,101293.66
2023-01-31T13:45:11.302Z,101292.59
2023-01-31T13:47:49.908Z,101285.56
2023-01-31T13:50:32.798Z,101293.66
2023-01-31T13:53:03.093Z,101280.19
2023-01-31T13:55:40.878Z,101271.28
2023-01-31T13:58:18.760Z,101274.72
2023-01-31T14:00:50.878Z,101280.03
2023-01-31T14:03:20.645Z,101281.81
2023-01-31T14:06:00.269Z,101280.25
2023-01-31T14:08:27.705Z,101278.19
2023-01-31T14:10:57.003Z,101275.47
2023-01-31T14:13:33.241Z,101274.53
2023-01-31T14:16:02.300Z,101276.31
2023-01-31T14:18:45.659Z,101262.25
2023-01-31T14:21:31.413Z,101273.66
2023-01-31T14:24:01.088Z,101270.41
2023-01-31T14:26:36.419Z,101273.06
2023-01-31T14:29:26.417Z,101277.47
2023-01-31T14:31:55.960Z,101276.53
2023-01-31T14:34:30.449Z,101275.19
2023-01-31T14:37:23.954Z,101266.16
2023-01-31T14:40:10.136Z,101259.97
2023-01-31T14:43:06.157Z,101256.28
2023-01-31T14:45:57.885Z,101259.25
2023-01-31T14:48:38.924Z,101248.66
2023-01-31T14:51:23.299Z,101249.53
2023-01-31T14:54:09.110Z,101259.13
2023-01-31T14:56:54.741Z,101260.09
2023-01-31T14:59:24.966Z,101249.75
2023-01-31T15:05:00.519Z,101251.59
2023-01-31T15:07:29.031Z,101253.84
2023-01-31T15:09:56.666Z,101253.72
2023-01-31T15:12:55.816Z,101250.94
2023-01-31T15:15:41.328Z,101254.91
2023-01-31T15:18:24.295Z,101255.84
2023-01-31T15:20:57.234Z,101261.31
2023-01-31T15:23:30.255Z,101262.34
2023-01-31T15:25:59.631Z,101256.44
2023-01-31T15:28:35.232Z,101258.13
2023-01-31T15:31:16.300Z,101261.75
2023-01-31T15:33:52.012Z,101262.75
2023-01-31T15:36:45.819Z,101264.47
2023-01-31T15:39:29.405Z,101252.03
2023-01-31T15:41:56.757Z,101248.59
2023-01-31T15:44:27.650Z,101261.91
2023-01-31T15:46:58.013Z,101253.00
2023-01-31T15:49:39.076Z,101263.88
2023-01-31T15:52:15.025Z,101280.72
2023-01-31T15:54:59.474Z,101274.91
2023-01-31T15:57:41.512Z,101281.19
2023-01-31T16:00:19.376Z,101274.19
2023-01-31T16:02:47.404Z,101271.63
2023-01-31T16:05:21.634Z,101274.38
2023-01-31T16:07:49.690Z,101275.31
2023-01-31T16:10:17.332Z,101262.16
2023-01-31T16:12:48.715Z,101279.91
2023-01-31T16:15:24.009Z,101287.16
2023-01-31T16:17:53.393Z,101274.72
2023-01-31T16:20:49.697Z,101281.03
2023-01-31T16:23:29.736Z,101272.44
2023-01-31T16:26:06.089Z,101286.63
2023-01-31T16:28:45.788Z,101277.75
2023-01-31T16:31:21.565Z,101290.25
2023-01-31T16:33:52.726Z,101293.06
2023-01-31T16:36:26.203Z,101297.53
2023-01-31T16:39:02.654Z,101299.41
2023-01-31T16:41:58.347Z,101299.38
2023-01-31T16:44:29.709Z,101290.56
2023-01-31T16:46:57.140Z,101302.94
2023-01-31T16:49:37.787Z,101314.50
2023-01-31T16:52:28.534Z,101332.25
2023-01-31T16:55:01.716Z,101333.22
2023-01-31T16:57:38.310Z,101334.16
2023-01-31T17:00:27.513Z,101327.19
2023-01-31T17:02:57.362Z,101312.22
2023-01-31T17:05:27.914Z,101323.66
2023-01-31T17:07:57.629Z,101321.06
2023-01-31T17:10:30.223Z,101312.19
2023-01-31T17:13:09.194Z,101304.25
2023-01-31T17:15:36.607Z,101295.47
2023-01-31T17:18:04.021Z,101314.91
2023-01-31T17:20:31.503Z,101308.72
2023-01-31T17:23:03.159Z,101308.78
2023-01-31T17:25:34.711Z,101322.06
2023-01-31T17:28:02.706Z,101301.78
2023-01-31T17:30:31.476Z,101288.53
2023-01-31T17:32:59.357Z,101280.56
2023-01-31T17:35:35.783Z,101292.94
2023-01-31T17:38:03.806Z,101288.56
2023-01-31T17:40:31.562Z,101294.72
2023-01-31T17:43:03.107Z,101292.13
2023-01-31T17:45:32.175Z,101285.06
2023-01-31T17:47:59.715Z,101297.44
2023-01-31T17:50:28.924Z,101304.53
2023-01-31T17:52:57.146Z,101300.13
2023-01-31T17:55:25.201Z,101306.31
2023-01-31T17:57:52.951Z,101305.44
2023-01-31T18:00:21.205Z,101295.78
2023-01-31T18:02:48.761Z,101292.25
2023-01-31T18:05:20.471Z,101302.84
2023-01-31T18:07:51.839Z,101298.41
2023-01-31T18:10:19.461Z,101303.72
2023-01-31T18:12:46.897Z,101301.97
2023-01-31T18:15:14.315Z,101294.00
2023-01-31T18:17:41.984Z,101296.69
2023-01-31T18:20:09.829Z,101305.50
2023-01-31T18:22:37.212Z,101289.59
2023-01-31T18:25:05.434Z,101297.59
2023-01-31T18:27:33.536Z,101293.16
2023-01-31T18:30:00.886Z,101289.66
2023-01-31T18:32:28.287Z,101297.59
2023-01-31T18:34:55.689Z,101298.47
2023-01-31T18:37:23.090Z,101300.25
2023-01-31T18:39:51.964Z,101301.13
2023-01-31T18:42:20.697Z,101290.56
2023-01-31T18:44:48.144Z,101288.78
2023-01-31T18:47:16.630Z,101288.75
2023-01-31T18:49:44.003Z,101274.66
2023-01-31T18:52:11.515Z,101266.75
2023-01-31T18:54:38.922Z,101268.47
2023-01-31T18:57:06.329Z,101261.47
2023-01-31T18:59:34.967Z,101275.56
2023-01-31T19:02:02.395Z,101268.50
2023-01-31T19:04:29.818Z,101268.53
2023-01-31T19:06:57.444Z,101278.19
2023-01-31T19:09:24.870Z,101279.06
2023-01-31T19:11:52.320Z,101282.59
2023-01-31T19:14:20.131Z,101279.09
2023-01-31T19:16:49.301Z,101278.22
2023-01-31T19:19:17.032Z,101280.88
2023-01-31T19:21:44.641Z,101296.66
2023-01-31T19:24:13.764Z,101279.94
2023-01-31T19:26:42.247Z,101280.81
2023-01-31T19:29:14.485Z,101291.41
2023-01-31T19:31:42.173Z,101284.31
2023-01-31T19:34:10.038Z,101273.75
2023-01-31T19:36:39.739Z,101280.78
2023-01-31T19:39:09.546Z,101302.81
2023-01-31T19:41:37.090Z,101291.34
2023-01-31T19:44:05.022Z,101289.59
2023-01-31T19:46:35.389Z,101296.63
2023-01-31T19:49:03.747Z,101282.56
2023-01-31T19:51:31.955Z,101287.84
2023-01-31T19:54:04.008Z,101279.91
2023-01-31T19:56:32.320Z,101286.06
2023-01-31T19:59:00.538Z,101290.50
2023-01-31T20:01:27.923Z,101289.56
2023-01-31T20:03:55.654Z,101275.50
2023-01-31T20:06:25.802Z,101279.88
2023-01-31T20:08:56.023Z,101289.56
2023-01-31T20:11:25.054Z,101290.44
2023-01-31T20:13:54.002Z,101314.22
2023-01-31T20:16:22.310Z,101313.34
2023-01-31T20:18:51.363Z,101308.09
2023-01-31T20:21:20.275Z,101319.50
2023-01-31T20:23:48.672Z,101308.88
2023-01-31T20:26:17.189Z,101328.13
2023-01-31T20:28:44.722Z,101333.44
2023-01-31T20:31:14.588Z,101326.38
2023-01-31T20:33:42.235Z,101331.69
2023-01-31T20:36:10.384Z,101323.66
2023-01-31T20:38:38.667Z,101327.16
2023-01-31T20:41:08.536Z,101316.72
2023-01-31T20:43:36.864Z,101321.06
2023-01-31T20:46:06.402Z,101314.81
2023-01-31T20:48:34.100Z,101320.94
2023-01-31T20:51:01.657Z,101317.44
2023-01-31T20:53:29.797Z,101330.59
2023-01-31T20:56:02.593Z,101327.22
2023-01-31T20:58:33.799Z,101331.69
2023-01-31T21:01:04.207Z,101325.53
2023-01-31T21:03:34.299Z,101325.56
2023-01-31T21:06:03.146Z,101341.31
2023-01-31T21:08:32.102Z,101326.38
2023-01-31T21:11:00.051Z,101335.25
2023-01-31T21:13:29.071Z,101335.25
2023-01-31T21:15:59.174Z,101345.81
2023-01-31T21:18:28.771Z,101348.41
2023-01-31T21:20:56.559Z,101345.72
2023-01-31T21:23:24.602Z,101353.66
2023-01-31T21:25:51.982Z,101350.97
2023-01-31T21:28:19.468Z,101338.63
2023-01-31T21:31:00.577Z,101346.59
2023-01-31T21:33:29.211Z,101341.38
2023-01-31T21:35:58.320Z,101340.34
2023-01-31T21:38:26.471Z,101330.59
2023-01-31T21:41:12.227Z,101320.97
2023-01-31T21:43:42.357Z,101317.47
2023-01-31T21:46:11.766Z,101319.25
2023-01-31T21:48:39.927Z,101313.06
2023-01-31T21:51:10.641Z,101326.19
2023-01-31T21:53:39.279Z,101319.97
2023-01-31T21:56:09.693Z,101315.44
2023-01-31T21:58:38.496Z,101314.63
2023-01-31T22:01:09.954Z,101304.22
2023-01-31T22:03:39.625Z,101307.72
2023-01-31T22:06:09.282Z,101319.03
2023-01-31T22:08:37.089Z,101318.16
2023-01-31T22:11:06.207Z,101319.09
2023-01-31T22:13:33.665Z,101327.00
2023-01-31T22:16:07.275Z,101320.78
2023-01-31T22:18:36.006Z,101319.78
2023-01-31T22:21:06.305Z,101334.66
2023-01-31T22:23:35.232Z,101325.03
2023-01-31T22:26:04.468Z,101315.44
2023-01-31T22:28:31.882Z,101316.25
2023-01-31T22:31:00.416Z,101311.84
2023-01-31T22:33:29.361Z,101320.66
2023-01-31T22:35:57.273Z,101321.53
2023-01-31T22:38:25.134Z,101321.53
2023-01-31T22:40:56.012Z,101314.41
2023-01-31T22:43:23.382Z,101309.78
2023-01-31T22:45:53.007Z,101313.22
2023-01-31T22:48:21.319Z,101306.94
2023-01-31T22:50:57.338Z,101320.59
2023-01-31T22:53:25.720Z,101314.56
2023-01-31T22:55:53.467Z,101308.28
2023-01-31T22:58:21.506Z,101301.38
2023-01-31T23:00:49.088Z,101292.63
2023-01-31T23:03:16.426Z,101293.50
2023-01-31T23:05:43.814Z,101297.13
2023-01-31T23:08:12.815Z,101298.63
2023-01-31T23:10:41.553Z,101298.69
2023-01-31T23:13:10.118Z,101290.66
2023-01-31T23:15:38.870Z,101288.91
2023-01-31T23:18:06.470Z,101279.34
2023-01-31T23:20:34.059Z,101275.75
2023-01-31T23:23:01.484Z,101285.22
2023-01-31T23:25:32.729Z,101276.50
2023-01-31T23:28:01.148Z,101294.75
2023-01-31T23:30:28.488Z,101283.41
2023-01-31T23:32:55.794Z,101289.41
2023-01-31T23:35:23.237Z,101300.06
2023-01-31T23:37:50.703Z,101289.63
2023-01-31T23:40:18.193Z,101292.19
2023-01-31T23:42:45.542Z,101284.41
2023-01-31T23:45:12.929Z,101309.81
2023-01-31T23:47:43.221Z,101310.31
2023-01-31T23:50:11.415Z,101312.25
2023-01-31T23:52:40.054Z,101306.28
2023-01-31T23:55:07.839Z,101311.56
2023-01-31T23:57:35.202Z,101317.66
